createdAt,value
2022-12-08T00:01:27.244Z,41.40
2022-12-08T00:03:55.426Z,40.63
2022-12-08T00:06:54.166Z,14.88
2022-12-08T00:09:38.225Z,26.38
2022-12-08T00:12:16.559Z,32.60
2022-12-08T00:14:46.075Z,37.35
2022-12-08T00:19:42.169Z,36.55
2022-12-08T00:22:10.746Z,40.58
2022-12-08T00:24:39.964Z,41.50
2022-12-08T00:27:09.162Z,42.10
2022-12-08T00:29:36.383Z,32.17
2022-12-08T00:32:03.990Z,38.20
2022-12-08T00:34:31.517Z,41.15
2022-12-08T00:36:58.699Z,41.17
2022-12-08T00:39:25.667Z,38.05
2022-12-08T00:42:11.190Z,43.92
2022-12-08T00:44:38.783Z,43.42
2022-12-08T00:47:05.855Z,41.30
2022-12-08T00:49:32.823Z,43.42
2022-12-08T00:51:59.893Z,25.83
2022-12-08T00:54:26.876Z,38.30
2022-12-08T00:56:53.928Z,42.28
2022-12-08T00:59:20.892Z,39.15
2022-12-08T01:01:48.598Z,37.60
2022-12-08T01:04:17.646Z,34.35
2022-12-08T01:06:45.002Z,41.47
2022-12-08T01:09:14.386Z,39.17
2022-12-08T01:11:41.417Z,37.97
2022-12-08T01:14:08.408Z,34.13
2022-12-08T01:16:36.616Z,35.88
2022-12-08T01:19:04.235Z,39.80
2022-12-08T01:21:31.217Z,33.20
2022-12-08T01:24:00.661Z,29.95
2022-12-08T01:28:54.757Z,31.48
2022-12-08T01:31:23.187Z,31.95
2022-12-08T01:33:50.563Z,39.67
2022-12-08T01:36:29.217Z,36.20
2022-12-08T01:38:59.810Z,31.83
2022-12-08T01:41:30.008Z,35.83
2022-12-08T01:44:24.727Z,31.20
2022-12-08T01:46:53.678Z,33.88
2022-12-08T01:49:34.892Z,32.50
2022-12-08T01:52:23.556Z,29.55
2022-12-08T01:54:56.306Z,33.95
2022-12-08T01:57:23.234Z,32.63
2022-12-08T02:00:01.617Z,36.08
2022-12-08T02:02:42.043Z,33.20
2022-12-08T02:05:10.191Z,31.70
2022-12-08T02:07:37.959Z,29.20
2022-12-08T02:10:06.120Z,30.90
2022-12-08T02:12:33.664Z,33.47
2022-12-08T02:15:04.969Z,29.88
2022-12-08T02:17:58.164Z,28.17
2022-12-08T02:20:37.270Z,32.58
2022-12-08T02:23:34.928Z,29.15
2022-12-08T02:26:26.448Z,32.75
2022-12-08T02:29:26.015Z,31.40
2022-12-08T02:32:14.870Z,32.15
2022-12-08T02:34:47.528Z,36.10
2022-12-08T02:37:17.268Z,32.50
2022-12-08T02:40:12.752Z,32.70
2022-12-08T02:42:46.967Z,27.55
2022-12-08T02:45:16.706Z,25.42
2022-12-08T02:47:44.793Z,30.80
2022-12-08T02:50:12.871Z,29.27
2022-12-08T02:52:48.262Z,31.73
2022-12-08T02:55:25.631Z,30.33
2022-12-08T02:58:18.094Z,28.98
2022-12-08T03:01:07.264Z,29.00
2022-12-08T03:03:38.554Z,27.42
2022-12-08T03:06:40.207Z,27.58
2022-12-08T03:09:16.410Z,32.88
2022-12-08T03:12:04.574Z,31.98
2022-12-08T03:14:33.979Z,25.55
2022-12-08T03:19:35.704Z,24.77
2022-12-08T03:22:05.014Z,34.53
2022-12-08T03:24:36.800Z,28.83
2022-12-08T03:27:19.092Z,26.77
2022-12-08T03:29:48.230Z,26.25
2022-12-08T03:32:47.963Z,27.02
2022-12-08T03:35:35.853Z,27.20
2022-12-08T03:38:12.730Z,29.63
2022-12-08T03:40:40.662Z,23.20
2022-12-08T03:43:07.689Z,25.35
2022-12-08T03:45:34.952Z,26.83
2022-12-08T03:48:02.305Z,32.30
2022-12-08T03:50:29.362Z,28.08
2022-12-08T03:52:56.429Z,27.48
2022-12-08T03:55:23.382Z,29.92
2022-12-08T03:57:50.367Z,29.33
2022-12-08T04:00:17.595Z,28.38
2022-12-08T04:02:44.800Z,26.05
2022-12-08T04:05:11.808Z,32.00
2022-12-08T04:07:38.789Z,31.17
2022-12-08T04:10:06.757Z,29.27
2022-12-08T04:12:33.964Z,27.92
2022-12-08T04:15:00.928Z,26.77
2022-12-08T04:17:27.942Z,26.15
2022-12-08T04:19:54.909Z,27.73
2022-12-08T04:22:21.962Z,31.25
2022-12-08T04:24:49.004Z,30.58
2022-12-08T04:27:16.055Z,30.10
2022-12-08T04:29:43.027Z,29.05
2022-12-08T04:32:10.088Z,33.97
2022-12-08T04:34:37.034Z,29.10
2022-12-08T04:37:03.975Z,28.52
2022-12-08T04:39:30.951Z,31.23
2022-12-08T04:41:57.942Z,25.70
2022-12-08T04:44:24.929Z,27.10
2022-12-08T04:46:51.939Z,25.70
2022-12-08T04:49:18.901Z,27.13
2022-12-08T04:51:45.898Z,27.65
2022-12-08T04:54:12.863Z,28.35
2022-12-08T04:56:39.806Z,29.75
2022-12-08T04:59:06.761Z,29.67
2022-12-08T05:01:33.835Z,36.55
2022-12-08T05:04:00.900Z,32.50
2022-12-08T05:06:27.865Z,31.70
2022-12-08T05:08:54.972Z,29.70
2022-12-08T05:11:21.968Z,31.67
2022-12-08T05:13:48.934Z,28.23
2022-12-08T05:16:16.708Z,32.92
2022-12-08T05:18:44.165Z,34.13
2022-12-08T05:21:11.823Z,27.40
2022-12-08T05:23:38.977Z,29.63
2022-12-08T05:26:06.097Z,24.45
2022-12-08T05:28:41.222Z,30.55
2022-12-08T05:31:09.471Z,30.85
2022-12-08T05:33:36.490Z,30.20
2022-12-08T05:36:03.763Z,28.67
2022-12-08T05:38:30.750Z,25.10
2022-12-08T05:40:57.840Z,27.23
2022-12-08T05:43:24.957Z,28.58
2022-12-08T05:45:51.983Z,29.63
2022-12-08T05:48:19.008Z,31.48
2022-12-08T05:50:50.718Z,30.00
2022-12-08T05:53:19.576Z,33.22
2022-12-08T05:55:47.560Z,29.33
2022-12-08T05:58:17.193Z,30.35
2022-12-08T06:00:44.774Z,27.65
2022-12-08T06:03:17.048Z,29.80
2022-12-08T06:05:46.199Z,31.00
2022-12-08T06:08:13.358Z,27.38
2022-12-08T06:10:42.564Z,28.23
2022-12-08T06:13:10.191Z,30.08
2022-12-08T06:15:38.534Z,29.77
2022-12-08T06:18:06.787Z,33.05
2022-12-08T06:20:34.556Z,30.67
2022-12-08T06:23:02.090Z,31.38
2022-12-08T06:25:29.089Z,33.90
2022-12-08T06:27:56.079Z,24.20
2022-12-08T06:30:23.066Z,31.52
2022-12-08T06:32:50.044Z,33.00
2022-12-08T06:35:17.098Z,30.75
2022-12-08T06:37:44.050Z,35.00
2022-12-08T06:40:20.297Z,29.85
2022-12-08T06:42:47.418Z,33.58
2022-12-08T06:45:16.545Z,30.55
2022-12-08T06:47:44.077Z,29.67
2022-12-08T06:50:35.053Z,36.67
2022-12-08T06:53:05.384Z,31.25
2022-12-08T06:58:20.946Z,31.73
2022-12-08T07:00:47.920Z,19.75
2022-12-08T07:03:15.149Z,23.38
2022-12-08T07:05:42.084Z,26.38
2022-12-08T07:08:09.455Z,16.63
2022-12-08T07:10:36.649Z,28.02
2022-12-08T07:13:31.132Z,26.45
2022-12-08T07:15:58.117Z,24.00
2022-12-08T07:18:25.134Z,29.50
2022-12-08T07:20:52.171Z,28.67
2022-12-08T07:23:19.129Z,36.45
2022-12-08T07:25:46.104Z,38.20
2022-12-08T07:28:13.170Z,26.17
2022-12-08T07:30:40.302Z,34.10
2022-12-08T07:33:07.421Z,33.05
2022-12-08T07:35:35.368Z,27.05
2022-12-08T07:38:02.903Z,40.88
2022-12-08T07:40:29.988Z,33.67
2022-12-08T07:42:57.006Z,31.90
2022-12-08T07:45:31.116Z,38.92
2022-12-08T07:47:58.862Z,37.15
2022-12-08T07:50:25.789Z,36.42
2022-12-08T07:52:52.772Z,41.03
2022-12-08T07:55:19.758Z,18.50
2022-12-08T07:57:46.757Z,20.95
2022-12-08T08:00:14.462Z,18.40
2022-12-08T08:02:42.420Z,16.70
2022-12-08T08:05:10.203Z,28.38
2022-12-08T08:07:37.397Z,32.83
2022-12-08T08:10:05.761Z,37.58
2022-12-08T08:12:33.358Z,21.80
2022-12-08T08:15:02.042Z,20.25
2022-12-08T08:17:30.203Z,33.45
2022-12-08T08:19:57.647Z,32.20
2022-12-08T08:22:26.158Z,31.92
2022-12-08T08:24:54.549Z,36.85
2022-12-08T08:27:22.656Z,30.77
2022-12-08T08:29:49.611Z,25.92
2022-12-08T08:32:16.613Z,34.88
2022-12-08T08:34:43.606Z,33.22
2022-12-08T08:37:10.672Z,30.50
2022-12-08T08:39:37.695Z,30.08
2022-12-08T08:42:04.810Z,22.05
2022-12-08T08:44:31.757Z,30.48
2022-12-08T08:46:58.785Z,34.40
2022-12-08T08:49:25.985Z,36.25
2022-12-08T08:51:53.055Z,33.45
2022-12-08T08:54:20.038Z,30.33
2022-12-08T08:56:48.304Z,34.40
2022-12-08T08:59:15.246Z,29.10
2022-12-08T09:01:42.374Z,39.53
2022-12-08T09:04:10.300Z,37.63
2022-12-08T09:06:38.116Z,19.77
2022-12-08T09:09:05.316Z,34.72
2022-12-08T09:11:33.206Z,36.33
2022-12-08T09:14:00.172Z,33.92
2022-12-08T09:16:28.161Z,34.63
2022-12-08T09:18:55.266Z,36.05
2022-12-08T09:21:25.951Z,30.75
2022-12-08T09:23:58.686Z,31.65
2022-12-08T09:26:28.028Z,40.00
2022-12-08T09:28:56.502Z,29.17
2022-12-08T09:31:24.568Z,23.52
2022-12-08T09:33:52.406Z,19.55
2022-12-08T09:36:20.495Z,23.45
2022-12-08T09:38:48.014Z,24.05
2022-12-08T09:41:23.965Z,29.02
2022-12-08T09:44:04.248Z,21.63
2022-12-08T09:46:33.923Z,21.75
2022-12-08T09:49:02.265Z,23.67
2022-12-08T09:51:37.327Z,18.75
2022-12-08T09:54:22.312Z,23.83
2022-12-08T09:56:52.062Z,11.23
2022-12-08T09:59:32.173Z,16.65
2022-12-08T10:02:01.152Z,20.15
2022-12-08T10:04:35.878Z,6.32
2022-12-08T10:07:35.515Z,21.65
2022-12-08T10:10:21.988Z,15.90
2022-12-08T10:13:02.116Z,15.25
2022-12-08T10:15:43.793Z,12.15
2022-12-08T10:18:18.848Z,12.95
2022-12-08T10:20:49.380Z,9.43
2022-12-08T10:23:45.666Z,10.77
2022-12-08T10:26:16.409Z,9.65
2022-12-08T10:28:45.520Z,6.18
2022-12-08T10:31:25.501Z,12.35
2022-12-08T10:34:01.571Z,13.90
2022-12-08T10:36:49.200Z,15.48
2022-12-08T10:39:34.544Z,12.90
2022-12-08T10:42:16.522Z,14.02
2022-12-08T10:44:55.411Z,15.23
2022-12-08T10:47:37.076Z,15.50
2022-12-08T10:50:22.671Z,12.05
2022-12-08T10:53:09.761Z,10.30
2022-12-08T10:55:47.335Z,9.77
2022-12-08T10:58:40.817Z,11.38
2022-12-08T11:01:20.757Z,9.82
2022-12-08T11:03:54.278Z,10.55
2022-12-08T11:06:33.202Z,7.93
2022-12-08T11:09:17.248Z,10.75
2022-12-08T11:11:47.005Z,13.15
2022-12-08T11:14:16.793Z,11.13
2022-12-08T11:16:44.236Z,11.82
2022-12-08T11:19:17.902Z,10.10
2022-12-08T11:21:45.231Z,14.50
2022-12-08T11:24:15.244Z,12.07
2022-12-08T11:26:51.687Z,9.75
2022-12-08T11:29:18.993Z,11.35
2022-12-08T11:32:00.845Z,15.32
2022-12-08T11:34:51.984Z,12.40
2022-12-08T11:38:13.375Z,11.15
2022-12-08T11:40:44.789Z,13.65
2022-12-08T11:43:33.756Z,13.23
2022-12-08T11:46:04.725Z,19.63
2022-12-08T11:48:53.540Z,14.13
2022-12-08T11:51:34.497Z,10.07
2022-12-08T11:54:17.559Z,10.75
2022-12-08T11:57:03.372Z,13.02
2022-12-08T11:59:41.936Z,14.85
2022-12-08T12:02:24.327Z,13.23
2022-12-08T12:05:03.632Z,11.88
2022-12-08T12:07:39.426Z,7.00
2022-12-08T12:10:50.903Z,15.02
2022-12-08T12:13:56.087Z,10.55
2022-12-08T12:16:35.599Z,13.38
2022-12-08T12:19:56.606Z,25.00
2022-12-08T12:22:24.777Z,14.30
2022-12-08T12:24:53.059Z,11.07
2022-12-08T12:27:32.231Z,9.15
2022-12-08T12:30:02.589Z,10.05
2022-12-08T12:32:45.611Z,10.20
2022-12-08T12:35:41.984Z,3.72
2022-12-08T12:38:57.088Z,7.75
2022-12-08T12:41:31.917Z,11.10
2022-12-08T12:44:29.125Z,10.50
2022-12-08T12:46:57.571Z,10.20
2022-12-08T12:49:39.911Z,14.82
2022-12-08T12:52:16.010Z,11.07
2022-12-08T12:54:49.885Z,14.52
2022-12-08T12:57:23.325Z,11.05
2022-12-08T12:59:55.558Z,10.35
2022-12-08T13:02:33.260Z,5.32
2022-12-08T13:05:11.515Z,10.52
2022-12-08T13:07:56.169Z,12.02
2022-12-08T13:10:39.777Z,10.13
2022-12-08T13:13:18.584Z,9.23
2022-12-08T13:16:40.783Z,10.02
2022-12-08T13:19:16.124Z,11.13
2022-12-08T13:21:43.344Z,11.65
2022-12-08T13:24:14.341Z,10.38
2022-12-08T13:27:03.651Z,8.07
2022-12-08T13:29:32.487Z,10.50
2022-12-08T13:32:01.389Z,7.50
2022-12-08T13:34:45.491Z,8.98
2022-12-08T13:37:12.563Z,12.65
2022-12-08T13:39:39.814Z,9.63
2022-12-08T13:42:32.836Z,11.50
2022-12-08T13:45:28.013Z,10.27
2022-12-08T13:57:32.891Z,12.23
2022-12-08T14:00:14.012Z,8.15
2022-12-08T14:02:48.424Z,10.23
2022-12-08T14:05:21.644Z,10.68
2022-12-08T14:07:51.925Z,10.10
2022-12-08T14:10:32.182Z,9.70
2022-12-08T14:13:05.725Z,11.98
2022-12-08T14:15:37.779Z,12.10
2022-12-08T14:18:06.057Z,9.90
2022-12-08T14:20:57.946Z,12.40
2022-12-08T14:23:22.546Z,13.65
2022-12-08T14:25:50.226Z,11.43
2022-12-08T14:28:17.646Z,13.73
2022-12-08T14:30:44.968Z,11.88
2022-12-08T14:33:16.939Z,11.20
2022-12-08T14:35:50.966Z,10.00
2022-12-08T14:38:20.143Z,12.80
2022-12-08T14:41:01.129Z,9.63
2022-12-08T14:43:29.917Z,11.25
2022-12-08T14:46:06.410Z,13.60
2022-12-08T14:48:39.166Z,10.70
2022-12-08T14:51:12.396Z,12.02
2022-12-08T14:53:46.565Z,10.30
2022-12-08T14:56:36.526Z,11.10
2022-12-08T14:59:19.599Z,11.00
2022-12-08T15:01:49.053Z,9.85
2022-12-08T15:04:20.440Z,9.82
2022-12-08T15:07:01.748Z,10.73
2022-12-08T15:09:34.822Z,12.50
2022-12-08T15:12:07.452Z,11.35
2022-12-08T15:14:37.165Z,7.88
2022-12-08T15:17:24.572Z,8.68
2022-12-08T15:19:58.816Z,9.90
2022-12-08T15:22:28.881Z,7.20
2022-12-08T15:24:56.664Z,11.90
2022-12-08T15:27:25.683Z,8.70
2022-12-08T15:29:52.971Z,9.63
2022-12-08T15:32:23.660Z,9.82
2022-12-08T15:34:50.945Z,8.25
2022-12-08T15:37:23.829Z,11.68
2022-12-08T15:39:51.799Z,9.32
2022-12-08T15:42:20.029Z,11.23
2022-12-08T15:44:53.180Z,6.25
2022-12-08T15:48:12.082Z,9.90
2022-12-08T15:50:44.963Z,8.90
2022-12-08T15:53:32.175Z,10.82
2022-12-08T15:56:26.949Z,9.73
2022-12-08T15:58:54.249Z,7.88
2022-12-08T16:01:32.150Z,7.70
2022-12-08T16:04:47.784Z,8.73
2022-12-08T16:09:43.456Z,11.85
2022-12-08T16:18:26.937Z,8.80
2022-12-08T16:23:44.185Z,13.02
2022-12-08T16:26:44.288Z,9.25
2022-12-08T16:29:04.873Z,15.48
2022-12-08T16:31:32.214Z,11.10
2022-12-08T16:33:59.286Z,11.77
2022-12-08T16:36:26.342Z,19.08
2022-12-08T16:38:53.306Z,17.08
2022-12-08T16:41:38.718Z,18.30
2022-12-08T16:44:06.444Z,21.55
2022-12-08T16:46:33.796Z,16.08
2022-12-08T16:49:00.788Z,12.70
2022-12-08T16:51:27.974Z,11.00
2022-12-08T16:53:56.868Z,12.70
2022-12-08T16:56:30.390Z,15.15
2022-12-08T16:58:59.663Z,18.65
2022-12-08T17:01:26.771Z,16.60
2022-12-08T17:04:29.094Z,17.00
2022-12-08T17:06:41.024Z,15.98
2022-12-08T17:09:07.969Z,18.38
2022-12-08T17:11:40.866Z,16.75
2022-12-08T17:14:10.187Z,22.58
2022-12-08T17:16:37.373Z,15.50
2022-12-08T17:19:04.438Z,14.68
2022-12-08T17:21:31.538Z,14.02
2022-12-08T17:23:58.574Z,15.32
2022-12-08T17:26:25.645Z,11.82
2022-12-08T17:29:00.469Z,14.05
2022-12-08T17:31:30.135Z,11.75
2022-12-08T17:34:05.599Z,16.30
2022-12-08T17:36:32.958Z,14.40
2022-12-08T17:39:01.034Z,12.93
2022-12-08T17:41:34.654Z,13.82
2022-12-08T17:44:01.697Z,12.07
2022-12-08T17:46:28.791Z,16.13
2022-12-08T17:48:55.881Z,12.50
2022-12-08T17:51:22.972Z,17.13
2022-12-08T17:53:50.019Z,12.18
2022-12-08T17:56:20.497Z,11.40
2022-12-08T17:58:52.819Z,12.40
2022-12-08T18:01:21.680Z,11.98
2022-12-08T18:03:48.798Z,11.25
2022-12-08T18:06:17.696Z,12.57
2022-12-08T18:08:45.074Z,12.55
2022-12-08T18:11:18.341Z,13.98
2022-12-08T18:13:47.023Z,16.50
2022-12-08T18:16:15.355Z,12.17
2022-12-08T18:18:42.405Z,12.20
2022-12-08T18:21:09.581Z,14.48
2022-12-08T18:23:40.935Z,10.57
2022-12-08T18:26:31.058Z,11.80
2022-12-08T18:28:58.654Z,10.73
2022-12-08T18:31:25.818Z,10.02
2022-12-08T18:33:53.590Z,12.43
2022-12-08T18:36:23.411Z,12.57
2022-12-08T18:38:51.440Z,16.23
2022-12-08T18:41:23.445Z,17.92
2022-12-08T18:44:18.122Z,17.25
2022-12-08T18:46:45.267Z,17.77
2022-12-08T18:49:14.089Z,18.40
2022-12-08T18:51:41.293Z,20.88
2022-12-08T18:54:08.854Z,19.70
2022-12-08T18:56:36.926Z,18.95
2022-12-08T18:59:07.412Z,16.80
2022-12-08T19:01:36.510Z,13.43
2022-12-08T19:06:54.100Z,13.35
2022-12-08T19:09:22.428Z,13.30
2022-12-08T19:11:49.540Z,16.02
2022-12-08T19:14:16.770Z,13.85
2022-12-08T19:16:43.807Z,12.30
2022-12-08T19:19:10.803Z,12.63
2022-12-08T19:21:43.004Z,11.70
2022-12-08T19:24:13.257Z,13.73
2022-12-08T19:26:40.407Z,13.23
2022-12-08T19:29:07.784Z,13.98
2022-12-08T19:31:34.967Z,14.90
2022-12-08T19:34:03.385Z,14.93
2022-12-08T19:36:35.447Z,12.38
2022-12-08T19:39:23.131Z,16.13
2022-12-08T19:42:09.501Z,18.65
2022-12-08T19:44:54.648Z,17.67
2022-12-08T19:47:26.781Z,22.30
2022-12-08T19:50:15.348Z,21.23
2022-12-08T19:52:43.446Z,17.63
2022-12-08T19:55:10.753Z,18.55
2022-12-08T19:57:37.687Z,21.77
2022-12-08T20:00:05.675Z,27.33
2022-12-08T20:02:36.783Z,26.90
2022-12-08T20:05:05.853Z,20.63
2022-12-08T20:07:33.114Z,26.45
2022-12-08T20:10:00.279Z,42.55
2022-12-08T20:12:27.312Z,45.92
2022-12-08T20:14:54.298Z,34.42
2022-12-08T20:17:24.508Z,27.48
2022-12-08T20:19:51.668Z,23.23
2022-12-08T20:22:18.659Z,22.67
2022-12-08T20:24:50.422Z,20.55
2022-12-08T20:27:22.432Z,20.00
2022-12-08T20:29:49.642Z,18.65
2022-12-08T20:32:16.675Z,16.73
2022-12-08T20:34:43.707Z,16.42
2022-12-08T20:37:10.748Z,21.13
2022-12-08T20:39:38.532Z,16.13
2022-12-08T20:42:05.657Z,16.50
2022-12-08T20:44:32.691Z,15.63
2022-12-08T20:46:59.778Z,14.05
2022-12-08T20:49:31.254Z,14.40
2022-12-08T20:52:01.662Z,14.40
2022-12-08T20:54:28.675Z,13.02
2022-12-08T20:56:55.840Z,13.98
2022-12-08T20:59:22.994Z,15.73
2022-12-08T21:01:51.744Z,16.30
2022-12-08T21:04:20.051Z,14.88
2022-12-08T21:06:47.486Z,15.68
2022-12-08T21:09:14.588Z,15.05
2022-12-08T21:11:41.847Z,14.63
2022-12-08T21:14:08.864Z,16.30
2022-12-08T21:16:36.124Z,20.30
2022-12-08T21:19:03.305Z,17.83
2022-12-08T21:21:30.322Z,15.88
2022-12-08T21:23:57.375Z,16.65
2022-12-08T21:26:27.785Z,17.52
2022-12-08T21:28:58.598Z,17.63
2022-12-08T21:31:27.020Z,16.50
2022-12-08T21:33:55.301Z,16.50
2022-12-08T21:36:22.657Z,15.45
2022-12-08T21:38:50.026Z,17.90
2022-12-08T21:41:38.104Z,30.00
2022-12-08T21:44:06.340Z,25.98
2022-12-08T21:46:33.683Z,28.45
2022-12-08T21:49:00.983Z,17.83
2022-12-08T21:51:28.346Z,16.60
2022-12-08T21:53:55.379Z,16.85
2022-12-08T21:56:22.821Z,12.95
2022-12-08T21:58:50.419Z,16.05
2022-12-08T22:01:17.546Z,15.80
2022-12-08T22:03:44.745Z,15.57
2022-12-08T22:06:13.925Z,15.95
2022-12-08T22:08:41.777Z,14.07
2022-12-08T22:11:11.451Z,16.02
2022-12-08T22:13:40.542Z,15.48
2022-12-08T22:16:10.189Z,14.68
2022-12-08T22:18:38.239Z,14.98
2022-12-08T22:21:16.774Z,13.82
2022-12-08T22:23:44.906Z,16.77
2022-12-08T22:26:13.124Z,14.35
2022-12-08T22:28:42.586Z,17.65
2022-12-08T22:33:44.811Z,14.25
2022-12-08T22:36:16.048Z,12.70
2022-12-08T22:38:43.666Z,14.70
2022-12-08T22:41:11.493Z,13.75
2022-12-08T22:43:39.570Z,13.05
2022-12-08T22:46:13.854Z,14.07
2022-12-08T22:48:41.786Z,15.15
2022-12-08T22:51:10.085Z,14.65
2022-12-08T22:53:38.154Z,16.05
2022-12-08T22:56:10.537Z,14.85
2022-12-08T22:58:39.986Z,15.40
2022-12-08T23:01:08.551Z,15.48
2022-12-08T23:03:36.201Z,22.03
2022-12-08T23:06:11.797Z,16.92
2022-12-08T23:08:39.034Z,20.27
2022-12-08T23:11:06.226Z,19.98
2022-12-08T23:13:33.284Z,19.67
2022-12-08T23:16:58.622Z,18.50
2022-12-08T23:19:25.668Z,19.20
2022-12-08T23:21:52.613Z,16.55
2022-12-08T23:24:19.601Z,19.00
2022-12-08T23:26:46.555Z,18.20
2022-12-08T23:29:13.914Z,19.35
2022-12-08T23:31:40.967Z,16.80
2022-12-08T23:34:08.079Z,16.60
2022-12-08T23:36:35.219Z,14.45
2022-12-08T23:39:02.425Z,13.52
2022-12-08T23:41:29.608Z,15.65
2022-12-08T23:43:57.061Z,14.82
2022-12-08T23:46:24.200Z,17.88
2022-12-08T23:48:51.570Z,19.50
2022-12-08T23:51:19.160Z,19.75
2022-12-08T23:53:46.489Z,18.38
2022-12-08T23:56:16.973Z,17.52
2022-12-08T23:58:44.728Z,19.85
